sensor_id;sensor_type;location;lat;lon;timestamp;temperature;humidity
11764;DHT22;5939;56.522;14.950;2023-12-28T00:00:20;0.00;99.90
11764;DHT22;5939;56.522;14.950;2023-12-28T00:02:46;0.00;99.90
11764;DHT22;5939;56.522;14.950;2023-12-28T00:05:12;0.00;99.90
11764;DHT22;5939;56.522;14.950;2023-12-28T00:07:38;0.00;99.90
11764;DHT22;5939;56.522;14.950;2023-12-28T00:10:04;0.00;99.90
11764;DHT22;5939;56.522;14.950;2023-12-28T00:12:30;0.00;99.90
11764;DHT22;5939;56.522;14.950;2023-12-28T00:14:55;0.00;99.90
11764;DHT22;5939;56.522;14.950;2023-12-28T00:17:21;0.00;99.90
11764;DHT22;5939;56.522;14.950;2023-12-28T00:19:46;0.00;99.90
11764;DHT22;5939;56.522;14.950;2023-12-28T00:22:12;0.00;99.90
11764;DHT22;5939;56.522;14.950;2023-12-28T00:24:38;0.00;99.90
11764;DHT22;5939;56.522;14.950;2023-12-28T00:27:03;0.00;99.90
11764;DHT22;5939;56.522;14.950;2023-12-28T00:29:29;0.00;99.90
11764;DHT22;5939;56.522;14.950;2023-12-28T00:31:55;0.00;99.90
11764;DHT22;5939;56.522;14.950;2023-12-28T00:34:21;0.00;99.90
11764;DHT22;5939;56.522;14.950;2023-12-28T00:36:46;-0.10;99.90
11764;DHT22;5939;56.522;14.950;2023-12-28T00:39:12;0.00;99.90
11764;DHT22;5939;56.522;14.950;2023-12-28T00:41:38;-0.10;99.90
11764;DHT22;5939;56.522;14.950;2023-12-28T00:44:04;0.00;99.90
11764;DHT22;5939;56.522;14.950;2023-12-28T00:46:32;0.00;99.90
11764;DHT22;5939;56.522;14.950;2023-12-28T00:48:57;0.00;99.90
11764;DHT22;5939;56.522;14.950;2023-12-28T00:51:23;0.00;99.90
11764;DHT22;5939;56.522;14.950;2023-12-28T00:53:48;0.00;99.90
11764;DHT22;5939;56.522;14.950;2023-12-28T00:56:14;0.00;99.90
11764;DHT22;5939;56.522;14.950;2023-12-28T00:58:40;0.00;99.90
11764;DHT22;5939;56.522;14.950;2023-12-28T01:01:06;0.00;99.90
11764;DHT22;5939;56.522;14.950;2023-12-28T01:03:31;0.00;99.90
11764;DHT22;5939;56.522;14.950;2023-12-28T01:05:57;0.00;99.90
11764;DHT22;5939;56.522;14.950;2023-12-28T01:08:22;0.00;99.90
11764;DHT22;5939;56.522;14.950;2023-12-28T01:10:48;0.00;99.90
11764;DHT22;5939;56.522;14.950;2023-12-28T01:13:14;0.00;99.90
11764;DHT22;5939;56.522;14.950;2023-12-28T01:15:39;0.00;99.90
11764;DHT22;5939;56.522;14.950;2023-12-28T01:18:05;0.00;99.90
11764;DHT22;5939;56.522;14.950;2023-12-28T01:20:31;0.00;99.90
11764;DHT22;5939;56.522;14.950;2023-12-28T01:22:57;0.00;99.90
11764;DHT22;5939;56.522;14.950;2023-12-28T01:25:22;0.00;99.90
11764;DHT22;5939;56.522;14.950;2023-12-28T01:27:48;0.00;99.90
11764;DHT22;5939;56.522;14.950;2023-12-28T01:30:14;0.00;99.90
11764;DHT22;5939;56.522;14.950;2023-12-28T01:32:39;0.00;99.90
11764;DHT22;5939;56.522;14.950;2023-12-28T01:35:05;0.00;99.90
11764;DHT22;5939;56.522;14.950;2023-12-28T01:37:31;0.00;99.90
11764;DHT22;5939;56.522;14.950;2023-12-28T01:39:59;0.00;99.90
11764;DHT22;5939;56.522;14.950;2023-12-28T01:42:25;0.00;99.90
11764;DHT22;5939;56.522;14.950;2023-12-28T01:44:51;0.00;99.90
11764;DHT22;5939;56.522;14.950;2023-12-28T01:47:17;0.00;99.90
11764;DHT22;5939;56.522;14.950;2023-12-28T01:49:43;0.00;99.90
11764;DHT22;5939;56.522;14.950;2023-12-28T01:52:09;0.00;99.90
11764;DHT22;5939;56.522;14.950;2023-12-28T01:54:35;0.00;99.90
11764;DHT22;5939;56.522;14.950;2023-12-28T01:57:03;0.00;99.90
11764;DHT22;5939;56.522;14.950;2023-12-28T01:59:30;0.00;99.90
11764;DHT22;5939;56.522;14.950;2023-12-28T02:01:56;0.00;99.90
11764;DHT22;5939;56.522;14.950;2023-12-28T02:04:22;0.00;99.90
11764;DHT22;5939;56.522;14.950;2023-12-28T02:06:56;0.10;99.90
11764;DHT22;5939;56.522;14.950;2023-12-28T02:09:22;0.00;99.90
11764;DHT22;5939;56.522;14.950;2023-12-28T02:11:48;0.10;99.90
11764;DHT22;5939;56.522;14.950;2023-12-28T02:14:14;0.10;99.90
11764;DHT22;5939;56.522;14.950;2023-12-28T02:16:44;0.00;99.90
11764;DHT22;5939;56.522;14.950;2023-12-28T02:21:54;0.10;99.90
11764;DHT22;5939;56.522;14.950;2023-12-28T02:24:20;0.10;99.90
11764;DHT22;5939;56.522;14.950;2023-12-28T02:26:46;0.10;99.90
11764;DHT22;5939;56.522;14.950;2023-12-28T02:29:11;0.10;99.90
11764;DHT22;5939;56.522;14.950;2023-12-28T02:31:53;0.10;99.90
11764;DHT22;5939;56.522;14.950;2023-12-28T02:34:25;0.10;99.90
11764;DHT22;5939;56.522;14.950;2023-12-28T02:36:54;0.10;99.90
11764;DHT22;5939;56.522;14.950;2023-12-28T02:39:22;0.20;99.90
11764;DHT22;5939;56.522;14.950;2023-12-28T02:41:49;0.20;99.90
11764;DHT22;5939;56.522;14.950;2023-12-28T02:44:15;0.20;99.90
11764;DHT22;5939;56.522;14.950;2023-12-28T02:46:41;0.20;99.90
11764;DHT22;5939;56.522;14.950;2023-12-28T02:49:06;0.20;99.90
11764;DHT22;5939;56.522;14.950;2023-12-28T02:51:32;0.20;99.90
11764;DHT22;5939;56.522;14.950;2023-12-28T02:53:58;0.20;99.90
11764;DHT22;5939;56.522;14.950;2023-12-28T02:56:23;0.30;99.90
11764;DHT22;5939;56.522;14.950;2023-12-28T02:58:49;0.30;99.90
11764;DHT22;5939;56.522;14.950;2023-12-28T03:01:14;0.30;99.90
11764;DHT22;5939;56.522;14.950;2023-12-28T03:03:40;0.30;99.90
11764;DHT22;5939;56.522;14.950;2023-12-28T03:06:06;0.30;99.90
11764;DHT22;5939;56.522;14.950;2023-12-28T03:08:31;0.30;99.90
11764;DHT22;5939;56.522;14.950;2023-12-28T03:10:57;0.40;99.90
11764;DHT22;5939;56.522;14.950;2023-12-28T03:13:23;0.40;99.90
11764;DHT22;5939;56.522;14.950;2023-12-28T03:15:48;0.40;99.90
11764;DHT22;5939;56.522;14.950;2023-12-28T03:18:14;0.40;99.90
11764;DHT22;5939;56.522;14.950;2023-12-28T03:20:40;0.40;99.90
11764;DHT22;5939;56.522;14.950;2023-12-28T03:23:06;0.50;99.90
11764;DHT22;5939;56.522;14.950;2023-12-28T03:25:31;0.50;99.90
11764;DHT22;5939;56.522;14.950;2023-12-28T03:27:57;0.50;99.90
11764;DHT22;5939;56.522;14.950;2023-12-28T03:30:22;0.50;99.90
11764;DHT22;5939;56.522;14.950;2023-12-28T03:32:48;0.50;99.90
11764;DHT22;5939;56.522;14.950;2023-12-28T03:35:14;0.50;99.90
11764;DHT22;5939;56.522;14.950;2023-12-28T03:37:39;0.50;99.90
11764;DHT22;5939;56.522;14.950;2023-12-28T03:40:05;0.50;99.90
11764;DHT22;5939;56.522;14.950;2023-12-28T03:42:31;0.60;99.90
11764;DHT22;5939;56.522;14.950;2023-12-28T03:44:57;0.60;99.90
11764;DHT22;5939;56.522;14.950;2023-12-28T03:47:22;0.60;99.90
11764;DHT22;5939;56.522;14.950;2023-12-28T03:49:49;0.60;99.90
11764;DHT22;5939;56.522;14.950;2023-12-28T03:52:15;0.60;99.90
11764;DHT22;5939;56.522;14.950;2023-12-28T03:54:40;0.60;99.90
11764;DHT22;5939;56.522;14.950;2023-12-28T03:57:06;0.60;99.90
11764;DHT22;5939;56.522;14.950;2023-12-28T03:59:32;0.70;99.90
11764;DHT22;5939;56.522;14.950;2023-12-28T04:01:57;0.70;99.90
11764;DHT22;5939;56.522;14.950;2023-12-28T04:04:23;0.70;99.90
11764;DHT22;5939;56.522;14.950;2023-12-28T04:06:48;0.70;99.90
11764;DHT22;5939;56.522;14.950;2023-12-28T04:09:14;0.70;99.90
11764;DHT22;5939;56.522;14.950;2023-12-28T04:11:40;0.70;99.90
11764;DHT22;5939;56.522;14.950;2023-12-28T04:14:06;0.70;99.90
11764;DHT22;5939;56.522;14.950;2023-12-28T04:16:31;0.70;99.90
11764;DHT22;5939;56.522;14.950;2023-12-28T04:18:57;0.70;99.90
11764;DHT22;5939;56.522;14.950;2023-12-28T04:21:23;0.70;99.90
11764;DHT22;5939;56.522;14.950;2023-12-28T04:23:48;0.80;99.90
11764;DHT22;5939;56.522;14.950;2023-12-28T04:26:17;0.80;99.90
11764;DHT22;5939;56.522;14.950;2023-12-28T04:28:42;0.80;99.90
11764;DHT22;5939;56.522;14.950;2023-12-28T04:31:08;0.80;99.90
11764;DHT22;5939;56.522;14.950;2023-12-28T04:33:34;0.80;99.90
11764;DHT22;5939;56.522;14.950;2023-12-28T04:36:03;0.80;99.90
11764;DHT22;5939;56.522;14.950;2023-12-28T04:38:32;0.80;99.90
11764;DHT22;5939;56.522;14.950;2023-12-28T04:40:58;0.80;99.90
11764;DHT22;5939;56.522;14.950;2023-12-28T04:43:24;0.90;99.90
11764;DHT22;5939;56.522;14.950;2023-12-28T04:45:50;0.80;99.90
11764;DHT22;5939;56.522;14.950;2023-12-28T04:48:16;0.80;99.90
11764;DHT22;5939;56.522;14.950;2023-12-28T04:50:49;0.80;99.90
11764;DHT22;5939;56.522;14.950;2023-12-28T04:53:15;0.90;99.90
11764;DHT22;5939;56.522;14.950;2023-12-28T04:55:40;0.90;99.90
11764;DHT22;5939;56.522;14.950;2023-12-28T04:58:06;0.90;99.90
11764;DHT22;5939;56.522;14.950;2023-12-28T05:00:32;0.90;99.90
11764;DHT22;5939;56.522;14.950;2023-12-28T05:02:57;0.90;99.90
11764;DHT22;5939;56.522;14.950;2023-12-28T05:05:23;0.90;99.90
11764;DHT22;5939;56.522;14.950;2023-12-28T05:07:49;0.90;99.90
11764;DHT22;5939;56.522;14.950;2023-12-28T05:10:14;1.00;99.90
11764;DHT22;5939;56.522;14.950;2023-12-28T05:12:40;0.90;99.90
11764;DHT22;5939;56.522;14.950;2023-12-28T05:15:06;0.90;99.90
11764;DHT22;5939;56.522;14.950;2023-12-28T05:17:32;1.00;99.90
11764;DHT22;5939;56.522;14.950;2023-12-28T05:19:57;1.00;99.90
11764;DHT22;5939;56.522;14.950;2023-12-28T05:22:23;1.00;99.90
11764;DHT22;5939;56.522;14.950;2023-12-28T05:24:48;1.00;99.90
11764;DHT22;5939;56.522;14.950;2023-12-28T05:27:14;1.00;99.90
11764;DHT22;5939;56.522;14.950;2023-12-28T05:29:40;1.00;99.90
11764;DHT22;5939;56.522;14.950;2023-12-28T05:32:05;1.00;99.90
11764;DHT22;5939;56.522;14.950;2023-12-28T05:34:31;1.00;99.90
11764;DHT22;5939;56.522;14.950;2023-12-28T05:36:57;1.00;99.90
11764;DHT22;5939;56.522;14.950;2023-12-28T05:39:22;1.10;99.90
11764;DHT22;5939;56.522;14.950;2023-12-28T05:41:48;1.00;99.90
11764;DHT22;5939;56.522;14.950;2023-12-28T05:44:16;1.10;99.90
11764;DHT22;5939;56.522;14.950;2023-12-28T05:46:42;1.10;99.90
11764;DHT22;5939;56.522;14.950;2023-12-28T05:49:07;1.10;99.90
11764;DHT22;5939;56.522;14.950;2023-12-28T05:51:40;1.10;99.90
11764;DHT22;5939;56.522;14.950;2023-12-28T05:54:06;1.10;99.90
11764;DHT22;5939;56.522;14.950;2023-12-28T05:56:32;1.10;99.90
11764;DHT22;5939;56.522;14.950;2023-12-28T05:58:57;1.10;99.90
11764;DHT22;5939;56.522;14.950;2023-12-28T06:01:24;1.10;99.90
11764;DHT22;5939;56.522;14.950;2023-12-28T06:03:49;1.10;99.90
11764;DHT22;5939;56.522;14.950;2023-12-28T06:06:18;1.10;99.90
11764;DHT22;5939;56.522;14.950;2023-12-28T06:08:43;1.10;99.90
11764;DHT22;5939;56.522;14.950;2023-12-28T06:11:09;1.10;99.90
11764;DHT22;5939;56.522;14.950;2023-12-28T06:13:35;1.20;99.90
11764;DHT22;5939;56.522;14.950;2023-12-28T06:16:01;1.10;99.90
11764;DHT22;5939;56.522;14.950;2023-12-28T06:18:26;1.10;99.90
11764;DHT22;5939;56.522;14.950;2023-12-28T06:20:52;1.20;99.90
11764;DHT22;5939;56.522;14.950;2023-12-28T06:23:18;1.20;99.90
11764;DHT22;5939;56.522;14.950;2023-12-28T06:25:43;1.20;99.90
11764;DHT22;5939;56.522;14.950;2023-12-28T06:28:09;1.20;99.90
11764;DHT22;5939;56.522;14.950;2023-12-28T06:30:35;1.20;99.90
11764;DHT22;5939;56.522;14.950;2023-12-28T06:33:00;1.20;99.90
11764;DHT22;5939;56.522;14.950;2023-12-28T06:35:26;1.20;99.90
11764;DHT22;5939;56.522;14.950;2023-12-28T06:37:52;1.20;99.90
11764;DHT22;5939;56.522;14.950;2023-12-28T06:40:17;1.20;99.90
11764;DHT22;5939;56.522;14.950;2023-12-28T06:42:43;1.20;99.90
11764;DHT22;5939;56.522;14.950;2023-12-28T06:45:09;1.20;99.90
11764;DHT22;5939;56.522;14.950;2023-12-28T06:47:35;1.20;99.90
11764;DHT22;5939;56.522;14.950;2023-12-28T06:50:01;1.20;99.90
11764;DHT22;5939;56.522;14.950;2023-12-28T06:52:26;1.20;99.90
11764;DHT22;5939;56.522;14.950;2023-12-28T06:54:52;1.30;99.90
11764;DHT22;5939;56.522;14.950;2023-12-28T06:57:18;1.20;99.90
11764;DHT22;5939;56.522;14.950;2023-12-28T06:59:44;1.30;99.90
11764;DHT22;5939;56.522;14.950;2023-12-28T07:02:10;1.30;99.90
11764;DHT22;5939;56.522;14.950;2023-12-28T07:04:35;1.30;99.90
11764;DHT22;5939;56.522;14.950;2023-12-28T07:07:01;1.30;99.90
11764;DHT22;5939;56.522;14.950;2023-12-28T07:09:27;1.30;99.90
11764;DHT22;5939;56.522;14.950;2023-12-28T07:11:52;1.30;99.90
11764;DHT22;5939;56.522;14.950;2023-12-28T07:14:18;1.30;99.90
11764;DHT22;5939;56.522;14.950;2023-12-28T07:16:44;1.30;99.90
11764;DHT22;5939;56.522;14.950;2023-12-28T07:19:09;1.30;99.90
11764;DHT22;5939;56.522;14.950;2023-12-28T07:21:35;1.30;99.90
11764;DHT22;5939;56.522;14.950;2023-12-28T07:24:00;1.30;99.90
11764;DHT22;5939;56.522;14.950;2023-12-28T07:26:26;1.30;99.90
11764;DHT22;5939;56.522;14.950;2023-12-28T07:28:52;1.40;99.90
11764;DHT22;5939;56.522;14.950;2023-12-28T07:31:25;1.40;99.90
11764;DHT22;5939;56.522;14.950;2023-12-28T07:33:50;1.40;99.90
11764;DHT22;5939;56.522;14.950;2023-12-28T07:36:16;1.40;99.90
11764;DHT22;5939;56.522;14.950;2023-12-28T07:38:42;1.40;99.90
11764;DHT22;5939;56.522;14.950;2023-12-28T07:41:09;1.40;99.90
11764;DHT22;5939;56.522;14.950;2023-12-28T07:43:34;1.40;99.90
11764;DHT22;5939;56.522;14.950;2023-12-28T07:46:01;1.40;99.90
11764;DHT22;5939;56.522;14.950;2023-12-28T07:48:27;1.40;99.90
11764;DHT22;5939;56.522;14.950;2023-12-28T07:50:56;1.40;99.90
11764;DHT22;5939;56.522;14.950;2023-12-28T07:53:21;1.40;99.90
11764;DHT22;5939;56.522;14.950;2023-12-28T07:55:47;1.40;99.90
11764;DHT22;5939;56.522;14.950;2023-12-28T07:58:14;1.40;99.90
11764;DHT22;5939;56.522;14.950;2023-12-28T08:00:39;1.50;99.90
11764;DHT22;5939;56.522;14.950;2023-12-28T08:03:05;1.50;99.90
11764;DHT22;5939;56.522;14.950;2023-12-28T08:05:30;1.50;99.90
11764;DHT22;5939;56.522;14.950;2023-12-28T08:07:56;1.50;99.90
11764;DHT22;5939;56.522;14.950;2023-12-28T08:10:22;1.50;99.90
11764;DHT22;5939;56.522;14.950;2023-12-28T08:12:47;1.50;99.90
11764;DHT22;5939;56.522;14.950;2023-12-28T08:15:13;1.50;99.90
11764;DHT22;5939;56.522;14.950;2023-12-28T08:17:39;1.50;99.90
11764;DHT22;5939;56.522;14.950;2023-12-28T08:20:05;1.50;99.90
11764;DHT22;5939;56.522;14.950;2023-12-28T08:22:32;1.50;99.90
11764;DHT22;5939;56.522;14.950;2023-12-28T08:24:58;1.60;99.90
11764;DHT22;5939;56.522;14.950;2023-12-28T08:27:23;1.60;99.90
11764;DHT22;5939;56.522;14.950;2023-12-28T08:29:49;1.60;99.90
11764;DHT22;5939;56.522;14.950;2023-12-28T08:32:15;1.60;99.90
11764;DHT22;5939;56.522;14.950;2023-12-28T08:34:40;1.60;99.90
11764;DHT22;5939;56.522;14.950;2023-12-28T08:37:06;1.60;99.90
11764;DHT22;5939;56.522;14.950;2023-12-28T08:39:32;1.60;99.90
11764;DHT22;5939;56.522;14.950;2023-12-28T08:41:58;1.60;99.90
11764;DHT22;5939;56.522;14.950;2023-12-28T08:44:23;1.60;99.90
11764;DHT22;5939;56.522;14.950;2023-12-28T08:46:49;1.60;99.90
11764;DHT22;5939;56.522;14.950;2023-12-28T08:49:15;1.70;99.90
11764;DHT22;5939;56.522;14.950;2023-12-28T08:51:41;1.70;99.90
11764;DHT22;5939;56.522;14.950;2023-12-28T08:54:08;1.70;99.90
11764;DHT22;5939;56.522;14.950;2023-12-28T08:56:34;1.70;99.90
11764;DHT22;5939;56.522;14.950;2023-12-28T08:59:01;1.70;99.90
11764;DHT22;5939;56.522;14.950;2023-12-28T09:01:26;1.70;99.90
11764;DHT22;5939;56.522;14.950;2023-12-28T09:03:53;1.70;99.90
11764;DHT22;5939;56.522;14.950;2023-12-28T09:06:20;1.70;99.90
11764;DHT22;5939;56.522;14.950;2023-12-28T09:08:47;1.70;99.90
11764;DHT22;5939;56.522;14.950;2023-12-28T09:11:14;1.80;99.90
11764;DHT22;5939;56.522;14.950;2023-12-28T09:13:40;1.80;99.90
11764;DHT22;5939;56.522;14.950;2023-12-28T09:16:09;1.80;99.90
11764;DHT22;5939;56.522;14.950;2023-12-28T09:18:35;1.80;99.90
11764;DHT22;5939;56.522;14.950;2023-12-28T09:21:05;1.80;99.90
11764;DHT22;5939;56.522;14.950;2023-12-28T09:23:31;1.80;99.90
11764;DHT22;5939;56.522;14.950;2023-12-28T09:26:00;1.80;99.90
11764;DHT22;5939;56.522;14.950;2023-12-28T09:28:26;1.90;99.90
11764;DHT22;5939;56.522;14.950;2023-12-28T09:30:52;1.90;99.90
11764;DHT22;5939;56.522;14.950;2023-12-28T09:33:17;1.90;99.90
11764;DHT22;5939;56.522;14.950;2023-12-28T09:35:43;1.90;99.90
11764;DHT22;5939;56.522;14.950;2023-12-28T09:38:09;1.90;99.90
11764;DHT22;5939;56.522;14.950;2023-12-28T09:40:40;1.90;99.90
11764;DHT22;5939;56.522;14.950;2023-12-28T09:43:15;1.90;99.90
11764;DHT22;5939;56.522;14.950;2023-12-28T09:45:49;2.00;99.90
11764;DHT22;5939;56.522;14.950;2023-12-28T09:48:16;2.00;99.90
11764;DHT22;5939;56.522;14.950;2023-12-28T09:50:44;2.00;99.90
11764;DHT22;5939;56.522;14.950;2023-12-28T09:53:09;2.00;99.90
11764;DHT22;5939;56.522;14.950;2023-12-28T09:55:35;2.00;99.90
11764;DHT22;5939;56.522;14.950;2023-12-28T09:58:03;2.10;99.90
11764;DHT22;5939;56.522;14.950;2023-12-28T10:00:31;2.10;99.90
11764;DHT22;5939;56.522;14.950;2023-12-28T10:02:57;2.10;99.90
11764;DHT22;5939;56.522;14.950;2023-12-28T10:05:23;2.10;99.90
11764;DHT22;5939;56.522;14.950;2023-12-28T10:07:49;2.20;99.90
11764;DHT22;5939;56.522;14.950;2023-12-28T10:10:15;2.20;99.90
11764;DHT22;5939;56.522;14.950;2023-12-28T10:12:41;2.20;99.90
11764;DHT22;5939;56.522;14.950;2023-12-28T10:15:07;2.20;99.90
11764;DHT22;5939;56.522;14.950;2023-12-28T10:17:33;2.20;99.90
11764;DHT22;5939;56.522;14.950;2023-12-28T10:20:03;2.30;99.90
11764;DHT22;5939;56.522;14.950;2023-12-28T10:22:32;2.30;99.90
11764;DHT22;5939;56.522;14.950;2023-12-28T10:24:59;2.30;99.90
11764;DHT22;5939;56.522;14.950;2023-12-28T10:27:26;2.30;99.90
11764;DHT22;5939;56.522;14.950;2023-12-28T10:29:54;2.30;99.90
11764;DHT22;5939;56.522;14.950;2023-12-28T10:32:21;2.40;99.90
11764;DHT22;5939;56.522;14.950;2023-12-28T10:34:48;2.40;99.90
11764;DHT22;5939;56.522;14.950;2023-12-28T10:37:14;2.40;99.90
11764;DHT22;5939;56.522;14.950;2023-12-28T10:39:46;2.40;99.90
11764;DHT22;5939;56.522;14.950;2023-12-28T10:42:13;2.40;99.90
11764;DHT22;5939;56.522;14.950;2023-12-28T10:44:43;2.40;99.90
11764;DHT22;5939;56.522;14.950;2023-12-28T10:47:15;2.50;99.90
11764;DHT22;5939;56.522;14.950;2023-12-28T10:49:44;2.50;99.90
11764;DHT22;5939;56.522;14.950;2023-12-28T10:52:12;2.50;99.90
11764;DHT22;5939;56.522;14.950;2023-12-28T10:55:19;2.50;99.90
11764;DHT22;5939;56.522;14.950;2023-12-28T10:57:58;2.50;99.90
11764;DHT22;5939;56.522;14.950;2023-12-28T11:00:26;2.60;99.90
11764;DHT22;5939;56.522;14.950;2023-12-28T11:03:00;2.60;99.90
11764;DHT22;5939;56.522;14.950;2023-12-28T11:05:29;2.60;99.90
11764;DHT22;5939;56.522;14.950;2023-12-28T11:07:55;2.60;99.90
11764;DHT22;5939;56.522;14.950;2023-12-28T11:10:24;2.60;99.90
11764;DHT22;5939;56.522;14.950;2023-12-28T11:12:53;2.70;99.90
11764;DHT22;5939;56.522;14.950;2023-12-28T11:15:19;2.70;99.90
11764;DHT22;5939;56.522;14.950;2023-12-28T11:17:46;2.70;99.90
11764;DHT22;5939;56.522;14.950;2023-12-28T11:20:12;2.70;99.90
11764;DHT22;5939;56.522;14.950;2023-12-28T11:22:40;2.70;99.90
11764;DHT22;5939;56.522;14.950;2023-12-28T11:25:06;2.70;99.90
11764;DHT22;5939;56.522;14.950;2023-12-28T11:27:35;2.70;99.90
11764;DHT22;5939;56.522;14.950;2023-12-28T11:30:05;2.70;99.90
11764;DHT22;5939;56.522;14.950;2023-12-28T11:32:36;2.80;99.90
11764;DHT22;5939;56.522;14.950;2023-12-28T11:35:01;2.80;99.90
11764;DHT22;5939;56.522;14.950;2023-12-28T11:37:29;2.80;99.90
11764;DHT22;5939;56.522;14.950;2023-12-28T11:39:54;2.80;99.90
11764;DHT22;5939;56.522;14.950;2023-12-28T11:42:23;2.90;99.90
11764;DHT22;5939;56.522;14.950;2023-12-28T11:44:54;2.90;99.90
11764;DHT22;5939;56.522;14.950;2023-12-28T11:47:24;2.90;99.90
11764;DHT22;5939;56.522;14.950;2023-12-28T11:49:50;2.90;99.90
11764;DHT22;5939;56.522;14.950;2023-12-28T11:52:24;2.90;99.90
11764;DHT22;5939;56.522;14.950;2023-12-28T11:54:50;2.90;99.90
11764;DHT22;5939;56.522;14.950;2023-12-28T11:57:16;2.90;99.90
11764;DHT22;5939;56.522;14.950;2023-12-28T11:59:42;3.00;99.90
11764;DHT22;5939;56.522;14.950;2023-12-28T12:02:09;3.00;99.90
11764;DHT22;5939;56.522;14.950;2023-12-28T12:04:35;3.00;99.90
11764;DHT22;5939;56.522;14.950;2023-12-28T12:07:04;3.00;99.90
11764;DHT22;5939;56.522;14.950;2023-12-28T12:09:30;3.00;99.90
11764;DHT22;5939;56.522;14.950;2023-12-28T12:12:03;3.00;99.90
11764;DHT22;5939;56.522;14.950;2023-12-28T12:14:30;3.00;99.90
11764;DHT22;5939;56.522;14.950;2023-12-28T12:16:56;3.00;99.90
11764;DHT22;5939;56.522;14.950;2023-12-28T12:19:25;3.10;99.90
11764;DHT22;5939;56.522;14.950;2023-12-28T12:21:57;3.10;99.90
11764;DHT22;5939;56.522;14.950;2023-12-28T12:24:23;3.10;99.90
11764;DHT22;5939;56.522;14.950;2023-12-28T12:26:51;3.10;99.90
11764;DHT22;5939;56.522;14.950;2023-12-28T12:29:16;3.10;99.90
11764;DHT22;5939;56.522;14.950;2023-12-28T12:31:44;3.20;99.90
11764;DHT22;5939;56.522;14.950;2023-12-28T12:34:12;3.20;99.90
11764;DHT22;5939;56.522;14.950;2023-12-28T12:36:38;3.20;99.90
11764;DHT22;5939;56.522;14.950;2023-12-28T12:39:04;3.20;99.90
11764;DHT22;5939;56.522;14.950;2023-12-28T12:41:34;3.30;99.90
11764;DHT22;5939;56.522;14.950;2023-12-28T12:44:00;3.20;99.90
11764;DHT22;5939;56.522;14.950;2023-12-28T12:46:26;3.20;99.90
11764;DHT22;5939;56.522;14.950;2023-12-28T12:48:59;3.30;99.90
11764;DHT22;5939;56.522;14.950;2023-12-28T12:51:26;3.30;99.90
11764;DHT22;5939;56.522;14.950;2023-12-28T12:53:58;3.30;99.90
11764;DHT22;5939;56.522;14.950;2023-12-28T12:56:29;3.30;99.90
11764;DHT22;5939;56.522;14.950;2023-12-28T12:58:55;3.30;99.90
11764;DHT22;5939;56.522;14.950;2023-12-28T13:01:21;3.30;99.90
11764;DHT22;5939;56.522;14.950;2023-12-28T13:03:47;3.30;99.90
11764;DHT22;5939;56.522;14.950;2023-12-28T13:06:13;3.30;99.90
11764;DHT22;5939;56.522;14.950;2023-12-28T13:08:38;3.40;99.90
11764;DHT22;5939;56.522;14.950;2023-12-28T13:11:05;3.40;99.90
11764;DHT22;5939;56.522;14.950;2023-12-28T13:13:35;3.40;99.90
11764;DHT22;5939;56.522;14.950;2023-12-28T13:16:02;3.40;99.90
11764;DHT22;5939;56.522;14.950;2023-12-28T13:18:28;3.40;99.90
11764;DHT22;5939;56.522;14.950;2023-12-28T13:20:54;3.50;99.90
11764;DHT22;5939;56.522;14.950;2023-12-28T13:23:20;3.50;99.90
11764;DHT22;5939;56.522;14.950;2023-12-28T13:25:46;3.50;99.90
11764;DHT22;5939;56.522;14.950;2023-12-28T13:28:11;3.50;99.90
11764;DHT22;5939;56.522;14.950;2023-12-28T13:30:38;3.50;99.90
11764;DHT22;5939;56.522;14.950;2023-12-28T13:33:04;3.50;99.90
11764;DHT22;5939;56.522;14.950;2023-12-28T13:35:31;3.50;99.90
11764;DHT22;5939;56.522;14.950;2023-12-28T13:37:59;3.60;99.90
11764;DHT22;5939;56.522;14.950;2023-12-28T13:40:24;3.60;99.90
11764;DHT22;5939;56.522;14.950;2023-12-28T13:42:50;3.60;99.90
11764;DHT22;5939;56.522;14.950;2023-12-28T13:45:16;3.60;99.90
11764;DHT22;5939;56.522;14.950;2023-12-28T13:47:41;3.60;99.90
11764;DHT22;5939;56.522;14.950;2023-12-28T13:50:08;3.60;99.90
11764;DHT22;5939;56.522;14.950;2023-12-28T13:52:33;3.60;99.90
11764;DHT22;5939;56.522;14.950;2023-12-28T13:54:59;3.60;99.90
11764;DHT22;5939;56.522;14.950;2023-12-28T13:57:25;3.70;99.90
11764;DHT22;5939;56.522;14.950;2023-12-28T13:59:50;3.70;99.90
11764;DHT22;5939;56.522;14.950;2023-12-28T14:02:16;3.70;99.90
11764;DHT22;5939;56.522;14.950;2023-12-28T14:04:41;3.70;99.90
11764;DHT22;5939;56.522;14.950;2023-12-28T14:07:07;3.70;99.90
11764;DHT22;5939;56.522;14.950;2023-12-28T14:09:33;3.70;99.90
11764;DHT22;5939;56.522;14.950;2023-12-28T14:11:59;3.70;99.90
11764;DHT22;5939;56.522;14.950;2023-12-28T14:14:24;3.70;99.90
11764;DHT22;5939;56.522;14.950;2023-12-28T14:16:50;3.80;99.90
11764;DHT22;5939;56.522;14.950;2023-12-28T14:19:16;3.70;99.90
11764;DHT22;5939;56.522;14.950;2023-12-28T14:21:41;3.80;99.90
11764;DHT22;5939;56.522;14.950;2023-12-28T14:24:08;3.80;99.90
11764;DHT22;5939;56.522;14.950;2023-12-28T14:26:34;3.80;99.90
11764;DHT22;5939;56.522;14.950;2023-12-28T14:29:01;3.80;99.90
11764;DHT22;5939;56.522;14.950;2023-12-28T14:31:32;3.80;99.90
11764;DHT22;5939;56.522;14.950;2023-12-28T14:33:58;3.80;99.90
11764;DHT22;5939;56.522;14.950;2023-12-28T14:36:30;3.90;99.90
11764;DHT22;5939;56.522;14.950;2023-12-28T14:38:58;3.90;99.90
11764;DHT22;5939;56.522;14.950;2023-12-28T14:41:24;3.90;99.90
11764;DHT22;5939;56.522;14.950;2023-12-28T14:43:49;3.90;99.90
11764;DHT22;5939;56.522;14.950;2023-12-28T14:46:15;3.90;99.90
11764;DHT22;5939;56.522;14.950;2023-12-28T14:48:41;3.90;99.90
11764;DHT22;5939;56.522;14.950;2023-12-28T14:51:06;3.90;99.90
11764;DHT22;5939;56.522;14.950;2023-12-28T14:53:32;3.90;99.90
11764;DHT22;5939;56.522;14.950;2023-12-28T14:55:57;3.90;99.90
11764;DHT22;5939;56.522;14.950;2023-12-28T14:58:25;4.00;99.90
11764;DHT22;5939;56.522;14.950;2023-12-28T15:00:52;4.00;99.90
11764;DHT22;5939;56.522;14.950;2023-12-28T15:03:17;4.00;99.90
11764;DHT22;5939;56.522;14.950;2023-12-28T15:05:43;4.00;99.90
11764;DHT22;5939;56.522;14.950;2023-12-28T15:08:09;4.00;99.90
11764;DHT22;5939;56.522;14.950;2023-12-28T15:10:34;4.00;99.90
11764;DHT22;5939;56.522;14.950;2023-12-28T15:13:01;4.00;99.90
11764;DHT22;5939;56.522;14.950;2023-12-28T15:15:27;4.00;99.90
11764;DHT22;5939;56.522;14.950;2023-12-28T15:17:53;4.00;99.90
11764;DHT22;5939;56.522;14.950;2023-12-28T15:20:19;4.10;99.90
11764;DHT22;5939;56.522;14.950;2023-12-28T15:22:45;4.10;99.90
11764;DHT22;5939;56.522;14.950;2023-12-28T15:25:11;4.10;99.90
11764;DHT22;5939;56.522;14.950;2023-12-28T15:27:37;4.10;99.90
11764;DHT22;5939;56.522;14.950;2023-12-28T15:30:03;4.10;99.90
11764;DHT22;5939;56.522;14.950;2023-12-28T15:32:31;4.10;99.90
11764;DHT22;5939;56.522;14.950;2023-12-28T15:34:57;4.10;99.90
11764;DHT22;5939;56.522;14.950;2023-12-28T15:37:22;4.10;99.90
11764;DHT22;5939;56.522;14.950;2023-12-28T15:39:48;4.10;99.90
11764;DHT22;5939;56.522;14.950;2023-12-28T15:42:14;4.20;99.90